Data for 07/30/2009

Time Sea-Level Adjusted Pressure Absolute Pressure Temperature Relative Humidity Dew Point   
(mb) (inHg) (mb) (inHg) (C) (F) (%) (C) (F)
00:05 1022 30.18 852 25.16 12.2 54 60 4.7 40.5
00:10 1022 30.18 852 25.16 12.3 54.2 59 4.7 40.4
00:15 1022 30.18 852 25.16 12.4 54.3 58 4.5 40.2
00:20 1022 30.18 852 25.16 12.4 54.4 58 4.5 40.1
00:25 1022 30.18 852 25.16 12.5 54.4 57 4.3 39.8
00:30 1022 30.18 852 25.16 12.5 54.4 58 4.4 40
00:35 1022 30.18 852 25.16 12.3 54.2 58 4.3 39.7
00:40 1022 30.18 852 25.16 12.3 54.1 57 4.2 39.5
00:45 1022 30.18 852 25.16 12.3 54.2 57 4.2 39.5
00:50 1022 30.18 852 25.16 12.3 54.2 57 4.2 39.5
00:55 1023 30.21 852 25.16 12.3 54.1 57 4.1 39.4
01:00 1023 30.21 852 25.16 12.3 54.1 56 3.9 39
01:05 1023 30.21 852 25.16 12.3 54.1 56 3.9 39
01:10 1023 30.21 852 25.16 12.3 54.1 56 3.8 38.9
01:15 1023 30.21 852 25.16 12.3 54.1 56 3.7 38.7
01:20 1023 30.21 852 25.16 12.2 54 56 3.7 38.6
01:25 1023 30.21 852 25.16 12.2 53.9 56 3.6 38.6
01:30 1023 30.21 852 25.16 12.1 53.9 56 3.6 38.4
01:35 1022 30.18 852 25.16 12.1 53.8 56 3.7 38.6
01:40 1022 30.18 852 25.16 11.9 53.5 56 3.6 38.4
01:45 1023 30.21 852 25.16 11.8 53.3 57 3.7 38.7
01:50 1023 30.21 852 25.16 11.7 53 58 3.8 38.9
01:55 1023 30.21 852 25.16 11.4 52.5 60 3.9 39
02:00 1022 30.18 852 25.16 11.1 51.9 61 4 39.1
02:05 1022 30.18 852 25.16 10.8 51.4 62 3.9 39.1
02:10 1022 30.18 852 25.16 10.6 51 64 4 39.1
02:15 1022 30.18 852 25.16 10.4 50.6 64 4 39.2
02:20 1022 30.18 852 25.16 10.1 50.3 66 4 39.3
02:25 1022 30.18 852 25.16 9.9 49.9 67 4.1 39.3
02:30 1022 30.18 852 25.16 9.8 49.7 66 3.9 39
02:35 1022 30.18 852 25.16 9.9 49.8 66 3.8 38.9
02:40 1022 30.18 852 25.16 10 50 65 3.8 38.9
02:45 1022 30.18 852 25.16 9.9 49.9 67 4 39.3
02:50 1022 30.18 852 25.16 9.5 49.2 69 4.2 39.5
02:55 1022 30.18 852 25.16 9.3 48.7 70 4 39.3
03:00 1022 30.18 851 25.13 9.2 48.5 69 3.8 38.9
03:05 1022 30.18 851 25.13 9.2 48.5 69 3.8 38.9
03:10 1022 30.18 851 25.13 9 48.3 70 3.8 38.9
03:15 1022 30.18 851 25.13 8.8 47.8 71 3.9 39
03:20 1022 30.18 851 25.13 8.7 47.6 70 3.6 38.5
03:25 1022 30.18 851 25.13 8.7 47.7 71 3.7 38.7
03:30 1022 30.18 851 25.13 8.6 47.4 71 3.6 38.4
03:35 1022 30.18 851 25.13 8.6 47.5 71 3.7 38.6
03:40 1022 30.18 852 25.16 8.6 47.4 71 3.6 38.4
03:45 1022 30.18 852 25.16 8.6 47.4 71 3.7 38.6
03:50 1022 30.18 852 25.16 8.6 47.4 70 3.4 38.2
03:55 1022 30.18 852 25.16 8.8 47.8 70 3.5 38.4
04:00 1022 30.18 851 25.13 8.7 47.6 70 3.5 38.3
04:05 1022 30.18 851 25.13 8.4 47.1 73 3.8 38.8
04:10 1022 30.18 851 25.13 8.1 46.5 74 3.7 38.7
04:15 1022 30.18 851 25.13 7.9 46.2 74 3.6 38.6
04:20 1022 30.18 851 25.13 7.7 45.9 75 3.7 38.6
04:25 1022 30.18 851 25.13 7.5 45.6 76 3.5 38.3
04:30 1022 30.18 851 25.13 7.6 45.6 75 3.5 38.2
04:35 1022 30.18 852 25.16 7.6 45.6 76 3.6 38.5
04:40 1022 30.18 852 25.16 7.5 45.5 76 3.5 38.3
04:45 1022 30.18 852 25.16 7.6 45.6 74 3.3 38
04:50 1022 30.18 851 25.13 8 46.4 72 3.2 37.8
04:55 1022 30.18 851 25.13 8.1 46.5 73 3.5 38.3
05:00 1022 30.18 852 25.16 7.9 46.2 73 3.4 38.1
05:05 1022 30.18 852 25.16 7.8 46.1 72 3.1 37.7
05:10 1022 30.18 851 25.13 7.9 46.1 72 3.2 37.7
05:15 1022 30.18 851 25.13 7.7 45.9 74 3.4 38.2
05:20 1022 30.18 851 25.13 7.6 45.6 74 3.2 37.7
05:25 1022 30.18 851 25.13 7.5 45.6 74 3.2 37.8
05:30 1022 30.18 851 25.13 7.6 45.6 74 3.3 38
05:35 1022 30.18 851 25.13 7.5 45.5 74 3.3 37.9
05:40 1022 30.18 851 25.13 7.5 45.4 75 3.3 37.9
05:45 1022 30.18 851 25.13 7.3 45.2 76 3.4 38.1
05:50 1022 30.18 851 25.13 7 44.5 78 3.4 38.1
05:55 1022 30.18 851 25.13 6.9 44.4 77 3.2 37.7
06:00 1022 30.18 851 25.13 6.9 44.4 76 3 37.5
06:05 1022 30.18 851 25.13 7.3 45.1 74 3 37.4
06:10 1022 30.18 851 25.13 7.5 45.5 74 3.2 37.7
06:15 1022 30.18 851 25.13 7.5 45.4 74 3.1 37.6
06:20 1022 30.18 851 25.13 7.5 45.4 74 3.2 37.8
06:25 1022 30.18 851 25.13 7.4 45.3 75 3.2 37.8
06:30 1022 30.18 851 25.13 7.4 45.4 74 3.2 37.7
06:35 1022 30.18 851 25.13 7.4 45.3 75 3.3 38
06:40 1022 30.18 851 25.13 7.2 45 76 3.2 37.8
06:45 1022 30.18 851 25.13 7.5 45.4 74 3.1 37.5
06:50 1022 30.18 851 25.13 7.6 45.6 74 3.2 37.8
06:55 1022 30.18 851 25.13 7.8 46 72 3.1 37.6
07:00 1022 30.18 851 25.13 8.1 46.5 72 3.4 38.1
07:05 1022 30.18 851 25.13 8.2 46.7 72 3.4 38.1
07:10 1022 30.18 851 25.13 8.2 46.8 72 3.4 38.2
07:15 1022 30.18 851 25.13 8.4 47 72 3.5 38.3
07:20 1022 30.18 851 25.13 8.5 47.4 71 3.6 38.6
07:25 1022 30.18 851 25.13 8.7 47.6 70 3.6 38.5
07:30 1022 30.18 851 25.13 9 48.2 69 3.6 38.5
07:35 1022 30.18 851 25.13 9.2 48.5 70 4 39.1
07:40 1022 30.18 851 25.13 9.4 48.9 68 3.9 39
07:45 1022 30.18 851 25.13 9.7 49.4 68 4.1 39.4
07:50 1022 30.18 851 25.13 9.9 49.7 67 4.1 39.5
07:55 1022 30.18 851 25.13 10.1 50.1 67 4.2 39.6
08:00 1022 30.18 851 25.13 10.3 50.5 66 4.3 39.7
08:05 1022 30.18 851 25.13 10.7 51.3 64 4.3 39.7
08:10 1022 30.18 851 25.13 11.4 52.5 63 4.7 40.4
08:15 1022 30.18 851 25.13 11.8 53.3 63 5.1 41.1
08:20 1022 30.18 851 25.13 11.8 53.2 62 4.9 40.8
08:25 1022 30.18 851 25.13 12.1 53.8 61 4.9 40.8
08:30 1022 30.18 851 25.13 12.5 54.4 60 4.9 40.7
08:35 1022 30.18 851 25.13 12.6 54.6 60 5 41
08:40 1022 30.18 851 25.13 13.2 55.7 57 4.9 40.9
08:45 1022 30.18 851 25.13 13.5 56.4 56 5 41
08:50 1022 30.18 851 25.13 13.9 57.1 54 4.9 40.7
08:55 1022 30.18 851 25.13 14.1 57.3 53 4.8 40.6
09:00 1022 30.18 851 25.13 13.8 56.9 55 4.9 40.8
09:05 1022 30.18 851 25.13 13.8 56.8 55 4.9 40.9
09:10 1022 30.18 851 25.13 14.2 57.6 51 4.4 39.8
09:15 1022 30.18 851 25.13 14.8 58.7 51 5 41
09:20 1022 30.18 851 25.13 15.1 59.2 50 4.9 40.9
09:25 1022 30.18 851 25.13 15.1 59.2 52 5.3 41.5
09:30 1022 30.18 851 25.13 15.5 59.9 49 4.8 40.7
09:35 1022 30.18 851 25.13 16.3 61.3 47 5 41
09:40 1022 30.18 851 25.13 16 60.7 47 4.7 40.4
09:45 1022 30.18 851 25.13 16.5 61.8 46 4.9 40.8
09:50 1022 30.18 851 25.13 16.5 61.7 45 4.6 40.2
09:55 1022 30.18 851 25.13 16.5 61.7 49 5.9 42.6
10:00 1022 30.18 851 25.13 16.2 61.2 49 5.6 42.2
10:05 1022 30.18 851 25.13 15.7 60.2 50 5.2 41.4
10:10 1022 30.18 851 25.13 16.3 61.4 46 4.7 40.4
10:15 1022 30.18 851 25.13 17.3 63.2 44 5.1 41.1
10:20 1022 30.18 851 25.13 17.8 64 45 5.7 42.2
10:25 1022 30.18 851 25.13 17.1 62.8 45 5.2 41.4
10:30 1022 30.18 851 25.13 17.1 62.9 47 5.9 42.5
10:35 1022 30.18 851 25.13 16.7 62 48 5.7 42.2
10:40 1022 30.18 851 25.13 15.9 60.6 49 5.2 41.3
10:45 1022 30.18 851 25.13 16.6 61.9 46 5.1 41.2
10:50 1022 30.18 851 25.13 17.9 64.3 42 5.1 41.2
10:55 1022 30.18 851 25.13 18.6 65.4 41 5.3 41.5
11:00 1022 30.18 851 25.13 18.9 66 39 4.9 40.8
11:05 1022 30.18 851 25.13 18.9 66 39 4.8 40.6
11:10 1021 30.15 851 25.13 18.7 65.6 38 4.4 39.8
11:15 1021 30.15 851 25.13 17.9 64.2 43 5.1 41.2
11:20 1021 30.15 851 25.13 17.5 63.6 43 4.8 40.7
11:25 1021 30.15 851 25.13 18.3 65 38 3.8 38.8
11:30 1021 30.15 851 25.13 19.3 66.7 35 3.4 38.1
11:35 1021 30.15 850 25.1 19.5 67.2 35 3.9 39
11:40 1021 30.15 850 25.1 19.5 67.1 37 4.4 39.9
11:45 1021 30.15 850 25.1 19.7 67.5 36 4.2 39.6
11:50 1021 30.15 850 25.1 20.1 68.1 34 4 39.2
11:55 1021 30.15 850 25.1 20.4 68.8 36 4.9 40.8
12:00 1021 30.15 850 25.1 20.7 69.2 35 5 41
12:05 1021 30.15 850 25.1 20.8 69.4 36 5.5 42
12:10 1021 30.15 850 25.1 20.8 69.4 34 4.3 39.8
12:15 1021 30.15 850 25.1 20.4 68.6 33 3.9 39
12:20 1021 30.15 850 25.1 20.5 68.9 33 4 39.2
12:25 1021 30.15 850 25.1 20.1 68.1 34 3.7 38.7
12:30 1021 30.15 850 25.1 20 68 33 3.3 38
12:35 1021 30.15 850 25.1 20.4 68.7 31 2.8 37
12:40 1021 30.15 850 25.1 20.8 69.4 32 3.6 38.4
12:45 1021 30.15 850 25.1 21.2 70.1 32 4.1 39.4
12:50 1021 30.15 850 25.1 21 69.9 35 5 41
12:55 1021 30.15 850 25.1 19.8 67.6 34 3.4 38.2
13:00 1021 30.15 850 25.1 20.9 69.6 32 3.7 38.7
13:05 1021 30.15 850 25.1 21.1 70 33 4.4 40
13:10 1021 30.15 850 25.1 21.6 70.9 32 4.4 39.8
13:15 1021 30.15 850 25.1 21.5 70.7 31 4 39.2
13:20 1021 30.15 850 25.1 21.7 71 29 3.2 37.7
13:25 1021 30.15 850 25.1 21.9 71.4 29 3.2 37.8
13:30 1021 30.15 850 25.1 22.4 72.2 29 3.8 38.9
13:35 1020 30.12 850 25.1 22.4 72.3 29 3.8 38.8
13:40 1020 30.12 850 25.1 22.4 72.4 28 3.4 38.1
13:45 1020 30.12 850 25.1 22.1 71.8 28 2.9 37.3
13:50 1020 30.12 850 25.1 22.6 72.6 28 3.2 37.8
13:55 1020 30.12 850 25.1 21.5 70.7 31 3.7 38.7
14:00 1020 30.12 850 25.1 21.8 71.2 28 2.8 37
14:05 1020 30.12 850 25.1 22.8 73.1 28 3.3 38
14:10 1020 30.12 850 25.1 23.1 73.6 27 3.2 37.8
14:15 1020 30.12 850 25.1 22.8 73.1 28 3.5 38.3
14:20 1020 30.12 850 25.1 23.2 73.8 27 3.7 38.6
14:25 1020 30.12 850 25.1 23.1 73.6 26 2.9 37.3
14:30 1020 30.12 849 25.07 23 73.3 27 3.2 37.8
14:35 1020 30.12 849 25.07 22.7 72.8 27 3 37.4
14:40 1020 30.12 849 25.07 22.7 72.9 27 2.7 36.9
14:45 1020 30.12 849 25.07 22.8 73 27 3.2 37.8
14:50 1020 30.12 849 25.07 23.2 73.7 26 3 37.5
14:55 1020 30.12 849 25.07 23.2 73.8 27 3.5 38.4
15:00 1020 30.12 849 25.07 22.8 73 27 3.2 37.8
15:05 1020 30.12 849 25.07 23.3 73.9 27 3.6 38.5
15:10 1020 30.12 849 25.07 23.2 73.7 24 1.7 35
15:15 1020 30.12 849 25.07 23.4 74.1 24 2.1 35.7
15:20 1020 30.12 849 25.07 23.9 75.1 23 1.7 35.1
15:25 1020 30.12 849 25.07 23.9 75.1 24 2.3 36.2
15:30 1020 30.12 849 25.07 23.1 73.6 22 0.7 33.2
15:35 1020 30.12 849 25.07 23.2 73.7 22 0.8 33.5
15:40 1020 30.12 849 25.07 23 73.4 23 0.8 33.4
15:45 1020 30.12 849 25.07 23.3 74 23 1.5 34.7
15:50 1020 30.12 849 25.07 23.5 74.2 24 2 35.7
15:55 1020 30.12 849 25.07 23.5 74.3 24 2 35.6
16:00 1020 30.12 849 25.07 23.7 74.6 26 3 37.4
16:05 1020 30.12 849 25.07 23.8 74.8 24 2.1 35.8
16:10 1020 30.12 849 25.07 23.6 74.5 24 2.4 36.3
16:15 1020 30.12 849 25.07 23.7 74.7 25 2.6 36.6
16:20 1020 30.12 849 25.07 23.3 74 25 2.2 36
16:25 1020 30.12 849 25.07 23.1 73.6 25 2.1 35.7
16:30 1020 30.12 849 25.07 23.4 74.1 23 1.5 34.7
16:35 1019 30.09 849 25.07 23.6 74.5 24 2 35.6
16:40 1019 30.09 849 25.07 23.3 74 24 2 35.6
16:45 1019 30.09 849 25.07 24.1 75.3 24 2.4 36.2
16:50 1019 30.09 849 25.07 23.8 74.8 23 1.9 35.5
16:55 1019 30.09 848 25.04 24 75.2 23 1.8 35.2
17:00 1019 30.09 848 25.04 23.9 75 22 1.3 34.3
17:05 1019 30.09 848 25.04 23.8 74.8 23 1.8 35.2
17:10 1019 30.09 848 25.04 24.2 75.5 23 1.8 35.3
17:15 1019 30.09 848 25.04 24.1 75.4 23 2.2 36
17:20 1019 30.09 848 25.04 24 75.3 24 2.5 36.4
17:25 1019 30.09 848 25.04 23.6 74.4 26 3.1 37.5
17:30 1019 30.09 848 25.04 23 73.4 26 2.8 37.1
17:35 1019 30.09 848 25.04 23.5 74.3 25 2.5 36.6
17:40 1019 30.09 848 25.04 23.6 74.4 25 2.9 37.2
17:45 1019 30.09 848 25.04 23.4 74.2 25 2.5 36.4
17:50 1019 30.09 848 25.04 23.1 73.6 27 3.1 37.6
17:55 1019 30.09 848 25.04 23.2 73.8 25 2.4 36.4
18:00 1019 30.09 848 25.04 23.7 74.6 25 2.7 36.9
18:05 1019 30.09 848 25.04 23.7 74.7 25 2.7 36.8
18:10 1019 30.09 848 25.04 23.1 73.6 25 2.5 36.5
18:15 1019 30.09 848 25.04 23.7 74.7 25 2.8 37
18:20 1019 30.09 848 25.04 23.9 75 25 3 37.3
18:25 1019 30.09 848 25.04 24 75.1 24 2.6 36.6
18:30 1019 30.09 848 25.04 23.8 74.9 24 2.1 35.8
18:35 1019 30.09 848 25.04 23.8 74.9 23 1.9 35.5
18:40 1019 30.09 848 25.04 23.9 75 23 1.5 34.8
18:45 1019 30.09 848 25.04 24 75.2 23 2.1 35.8
18:50 1019 30.09 848 25.04 24 75.1 24 2.2 36
18:55 1019 30.09 848 25.04 23.9 75.1 24 2.3 36.2
19:00 1019 30.09 848 25.04 23.9 74.9 25 2.7 36.9
19:05 1019 30.09 848 25.04 24 75.2 24 2.5 36.4
19:10 1019 30.09 848 25.04 23.9 75 25 2.6 36.7
19:15 1019 30.09 848 25.04 23.4 74 25 2.6 36.7
19:20 1019 30.09 848 25.04 23 73.4 28 3.6 38.5
19:25 1019 30.09 848 25.04 22.3 72.1 29 3.7 38.7
19:30 1019 30.09 848 25.04 22.1 71.7 30 3.9 39.1
19:35 1018 30.06 848 25.04 22 71.7 28 3.1 37.5
19:40 1018 30.06 848 25.04 22 71.6 28 2.7 36.9
19:45 1018 30.06 848 25.04 21.8 71.3 28 2.7 36.8
19:50 1018 30.06 848 25.04 21.8 71.3 28 2.7 36.8
19:55 1018 30.06 848 25.04 21.8 71.3 28 2.8 37.1
20:00 1018 30.06 848 25.04 21.7 71 31 4 39.2
20:05 1018 30.06 847 25.01 21.4 70.5 32 4.2 39.5
20:10 1018 30.06 847 25.01 21.3 70.3 31 3.6 38.5
20:15 1018 30.06 847 25.01 21.3 70.3 34 5.2 41.3
20:20 1018 30.06 847 25.01 21.2 70.2 35 5.5 41.8
20:25 1018 30.06 847 25.01 21.2 70.1 34 4.7 40.4
20:30 1018 30.06 847 25.01 21 69.8 38 6.4 43.4
20:35 1018 30.06 847 25.01 20.9 69.5 32 3.9 39
20:40 1018 30.06 847 25.01 20.8 69.4 38 6 42.8
20:45 1018 30.06 847 25.01 20.4 68.7 42 7.1 44.7
20:50 1018 30.06 847 25.01 20 68 48 8.7 47.6
20:55 1018 30.06 847 25.01 19.6 67.2 49 8.6 47.4
21:00 1018 30.06 847 25.01 19.1 66.4 49 8.3 47
21:05 1018 30.06 847 25.01 18.4 65.2 52 8.6 47.4
21:10 1018 30.06 847 25.01 18.1 64.6 51 8 46.3
21:15 1018 30.06 847 25.01 17.8 64 50 7.4 45.3
21:20 1018 30.06 847 25.01 17.2 63 51 7.2 45
21:25 1018 30.06 848 25.04 17 62.5 54 7.8 46
21:30 1018 30.06 848 25.04 16.3 61.3 58 8.1 46.5
21:35 1019 30.09 848 25.04 15.7 60.3 56 7.1 44.8
21:40 1019 30.09 848 25.04 15.6 60 53 6.2 43.2
21:45 1019 30.09 848 25.04 15.6 60 52 5.9 42.7
21:50 1019 30.09 848 25.04 15.7 60.2 52 6 42.9
21:55 1019 30.09 848 25.04 15.6 60.1 51 5.6 42.1
22:00 1019 30.09 848 25.04 15.6 60 50 5.4 41.8
22:05 1019 30.09 848 25.04 15.7 60.3 50 5.5 42
22:10 1019 30.09 848 25.04 15.5 59.8 52 5.7 42.2
22:15 1019 30.09 848 25.04 15.1 59.3 53 5.7 42.3
22:20 1019 30.09 848 25.04 14.9 58.9 53 5.5 42
22:25 1019 30.09 848 25.04 14.9 58.8 52 5.3 41.6
22:30 1019 30.09 848 25.04 15 59 52 5.4 41.7
22:35 1019 30.09 848 25.04 14.8 58.7 53 5.5 41.8
22:40 1019 30.09 848 25.04 14.6 58.2 54 5.6 42.1
22:45 1019 30.09 848 25.04 14.3 57.7 55 5.5 41.9
22:50 1019 30.09 848 25.04 14 57.1 56 5.4 41.8
22:55 1019 30.09 848 25.04 13.9 57.1 55 5.1 41.2
23:00 1019 30.09 848 25.04 14.2 57.5 54 5 40.9
23:05 1019 30.09 848 25.04 14.3 57.8 53 5 41
23:10 1019 30.09 848 25.04 14.2 57.6 54 5.1 41.1
23:15 1019 30.09 848 25.04 14.2 57.5 54 5.2 41.3
23:20 1019 30.09 848 25.04 14.1 57.4 53 4.9 40.8
23:25 1019 30.09 848 25.04 14.2 57.6 53 5 41
23:30 1019 30.09 848 25.04 14.1 57.4 54 4.9 40.9
23:35 1019 30.09 848 25.04 14.1 57.5 53 4.8 40.6
23:40 1019 30.09 848 25.04 14.2 57.6 52 4.7 40.5
23:45 1019 30.09 848 25.04 14.3 57.8 52 4.7 40.4
23:50 1019 30.09 848 25.04 14.3 57.8 52 4.8 40.6
23:55 1019 30.09 848 25.04 14.3 57.7 52 4.8 40.6
24:00 1019 30.09 848 25.04 14.2 57.6 52 4.5 40